sensor_id;sensor_type;location;lat;lon;timestamp;temperature;humidity
68578;SHT31;61668;45.388;11.784;2022-12-07T00:01:11;5.24;85.92
68578;SHT31;61668;45.388;11.784;2022-12-07T00:03:48;5.27;85.90
68578;SHT31;61668;45.388;11.784;2022-12-07T00:06:16;5.23;85.91
68578;SHT31;61668;45.388;11.784;2022-12-07T00:08:43;5.22;85.90
68578;SHT31;61668;45.388;11.784;2022-12-07T00:11:11;5.20;86.01
68578;SHT31;61668;45.388;11.784;2022-12-07T00:13:41;5.19;86.09
68578;SHT31;61668;45.388;11.784;2022-12-07T00:16:09;5.21;86.14
68578;SHT31;61668;45.388;11.784;2022-12-07T00:18:38;5.22;86.15
68578;SHT31;61668;45.388;11.784;2022-12-07T00:21:12;5.22;86.20
68578;SHT31;61668;45.388;11.784;2022-12-07T00:23:42;5.22;86.16
68578;SHT31;61668;45.388;11.784;2022-12-07T00:26:10;5.23;86.01
68578;SHT31;61668;45.388;11.784;2022-12-07T00:28:46;5.22;85.88
68578;SHT31;61668;45.388;11.784;2022-12-07T00:31:14;5.22;85.90
68578;SHT31;61668;45.388;11.784;2022-12-07T00:33:42;5.22;85.84
68578;SHT31;61668;45.388;11.784;2022-12-07T00:36:09;5.19;85.87
68578;SHT31;61668;45.388;11.784;2022-12-07T00:38:38;5.14;85.92
68578;SHT31;61668;45.388;11.784;2022-12-07T00:41:06;5.08;85.93
68578;SHT31;61668;45.388;11.784;2022-12-07T00:43:35;5.07;86.01
68578;SHT31;61668;45.388;11.784;2022-12-07T00:46:01;5.04;86.19
68578;SHT31;61668;45.388;11.784;2022-12-07T00:48:26;5.05;86.38
68578;SHT31;61668;45.388;11.784;2022-12-07T00:50:52;5.06;86.55
68578;SHT31;61668;45.388;11.784;2022-12-07T00:53:18;5.06;86.71
68578;SHT31;61668;45.388;11.784;2022-12-07T00:55:44;5.07;86.90
68578;SHT31;61668;45.388;11.784;2022-12-07T00:58:10;5.07;87.12
68578;SHT31;61668;45.388;11.784;2022-12-07T01:00:37;5.08;87.25
68578;SHT31;61668;45.388;11.784;2022-12-07T01:03:05;5.12;87.36
68578;SHT31;61668;45.388;11.784;2022-12-07T01:05:31;5.17;87.46
68578;SHT31;61668;45.388;11.784;2022-12-07T01:07:58;5.19;87.41
68578;SHT31;61668;45.388;11.784;2022-12-07T01:10:23;5.21;87.37
68578;SHT31;61668;45.388;11.784;2022-12-07T01:12:49;5.21;87.30
68578;SHT31;61668;45.388;11.784;2022-12-07T01:15:14;5.22;87.34
68578;SHT31;61668;45.388;11.784;2022-12-07T01:17:40;5.24;87.38
68578;SHT31;61668;45.388;11.784;2022-12-07T01:20:05;5.27;87.36
68578;SHT31;61668;45.388;11.784;2022-12-07T01:22:35;5.27;87.20
68578;SHT31;61668;45.388;11.784;2022-12-07T01:25:03;5.26;87.05
68578;SHT31;61668;45.388;11.784;2022-12-07T01:27:30;5.24;86.88
68578;SHT31;61668;45.388;11.784;2022-12-07T01:29:58;5.25;87.00
68578;SHT31;61668;45.388;11.784;2022-12-07T01:32:24;5.28;86.99
68578;SHT31;61668;45.388;11.784;2022-12-07T01:34:49;5.27;86.82
68578;SHT31;61668;45.388;11.784;2022-12-07T01:37:15;5.26;86.64
68578;SHT31;61668;45.388;11.784;2022-12-07T01:39:40;5.23;86.43
68578;SHT31;61668;45.388;11.784;2022-12-07T01:42:09;5.22;86.29
68578;SHT31;61668;45.388;11.784;2022-12-07T01:47:43;5.18;86.23
68578;SHT31;61668;45.388;11.784;2022-12-07T01:50:15;5.12;86.17
68578;SHT31;61668;45.388;11.784;2022-12-07T01:52:41;5.05;86.12
68578;SHT31;61668;45.388;11.784;2022-12-07T01:55:11;4.98;86.22
68578;SHT31;61668;45.388;11.784;2022-12-07T01:57:41;4.92;86.15
68578;SHT31;61668;45.388;11.784;2022-12-07T02:00:13;4.88;86.14
68578;SHT31;61668;45.388;11.784;2022-12-07T02:03:04;4.84;86.08
68578;SHT31;61668;45.388;11.784;2022-12-07T02:05:35;4.80;86.07
68578;SHT31;61668;45.388;11.784;2022-12-07T02:08:03;4.76;86.09
68578;SHT31;61668;45.388;11.784;2022-12-07T02:10:30;4.76;86.10
68578;SHT31;61668;45.388;11.784;2022-12-07T02:13:11;4.76;86.25
68578;SHT31;61668;45.388;11.784;2022-12-07T02:15:50;4.76;86.33
68578;SHT31;61668;45.388;11.784;2022-12-07T02:21:46;4.78;86.53
68578;SHT31;61668;45.388;11.784;2022-12-07T02:35:30;4.97;87.00
68578;SHT31;61668;45.388;11.784;2022-12-07T02:40:53;5.04;87.02
68578;SHT31;61668;45.388;11.784;2022-12-07T02:43:37;5.08;87.06
68578;SHT31;61668;45.388;11.784;2022-12-07T02:46:20;5.09;87.00
68578;SHT31;61668;45.388;11.784;2022-12-07T02:48:52;5.10;87.03
68578;SHT31;61668;45.388;11.784;2022-12-07T02:51:21;5.14;87.09
68578;SHT31;61668;45.388;11.784;2022-12-07T02:53:47;5.15;86.93
68578;SHT31;61668;45.388;11.784;2022-12-07T02:56:18;5.15;86.99
68578;SHT31;61668;45.388;11.784;2022-12-07T02:59:29;5.14;87.00
68578;SHT31;61668;45.388;11.784;2022-12-07T03:07:32;5.10;87.19
68578;SHT31;61668;45.388;11.784;2022-12-07T03:10:16;5.09;87.23
68578;SHT31;61668;45.388;11.784;2022-12-07T03:21:19;4.99;87.30
68578;SHT31;61668;45.388;11.784;2022-12-07T03:23:56;4.98;87.30
68578;SHT31;61668;45.388;11.784;2022-12-07T03:26:37;4.96;87.28
68578;SHT31;61668;45.388;11.784;2022-12-07T03:29:10;4.94;87.20
68578;SHT31;61668;45.388;11.784;2022-12-07T03:31:47;4.89;87.20
68578;SHT31;61668;45.388;11.784;2022-12-07T03:34:40;4.86;87.18
68578;SHT31;61668;45.388;11.784;2022-12-07T03:37:21;4.81;87.20
68578;SHT31;61668;45.388;11.784;2022-12-07T03:42:36;4.76;87.21
68578;SHT31;61668;45.388;11.784;2022-12-07T03:45:02;4.74;87.20
68578;SHT31;61668;45.388;11.784;2022-12-07T03:50:12;4.69;87.21
68578;SHT31;61668;45.388;11.784;2022-12-07T03:55:36;4.65;87.30
68578;SHT31;61668;45.388;11.784;2022-12-07T03:58:09;4.64;87.31
68578;SHT31;61668;45.388;11.784;2022-12-07T04:00:40;4.62;87.40
68578;SHT31;61668;45.388;11.784;2022-12-07T04:03:07;4.62;87.40
68578;SHT31;61668;45.388;11.784;2022-12-07T04:05:33;4.60;87.44
68578;SHT31;61668;45.388;11.784;2022-12-07T04:08:02;4.59;87.46
68578;SHT31;61668;45.388;11.784;2022-12-07T04:10:28;4.58;87.50
68578;SHT31;61668;45.388;11.784;2022-12-07T04:12:55;4.59;87.53
68578;SHT31;61668;45.388;11.784;2022-12-07T04:15:21;4.58;87.58
68578;SHT31;61668;45.388;11.784;2022-12-07T04:17:47;4.58;87.60
68578;SHT31;61668;45.388;11.784;2022-12-07T04:20:13;4.58;87.60
68578;SHT31;61668;45.388;11.784;2022-12-07T04:22:39;4.58;87.60
68578;SHT31;61668;45.388;11.784;2022-12-07T04:25:05;4.61;87.70
68578;SHT31;61668;45.388;11.784;2022-12-07T04:27:30;4.64;87.73
68578;SHT31;61668;45.388;11.784;2022-12-07T04:29:56;4.66;87.70
68578;SHT31;61668;45.388;11.784;2022-12-07T04:32:22;4.69;87.69
68578;SHT31;61668;45.388;11.784;2022-12-07T04:34:49;4.70;87.49
68578;SHT31;61668;45.388;11.784;2022-12-07T04:37:15;4.69;87.35
68578;SHT31;61668;45.388;11.784;2022-12-07T04:39:41;4.68;87.34
68578;SHT31;61668;45.388;11.784;2022-12-07T04:42:09;4.70;87.42
68578;SHT31;61668;45.388;11.784;2022-12-07T04:44:35;4.71;87.47
68578;SHT31;61668;45.388;11.784;2022-12-07T04:47:01;4.74;87.53
68578;SHT31;61668;45.388;11.784;2022-12-07T04:49:27;4.75;87.42
68578;SHT31;61668;45.388;11.784;2022-12-07T04:51:52;4.75;87.40
68578;SHT31;61668;45.388;11.784;2022-12-07T04:54:18;4.77;87.39
68578;SHT31;61668;45.388;11.784;2022-12-07T04:56:44;4.77;87.30
68578;SHT31;61668;45.388;11.784;2022-12-07T04:59:10;4.75;87.30
68578;SHT31;61668;45.388;11.784;2022-12-07T05:01:40;4.75;87.34
68578;SHT31;61668;45.388;11.784;2022-12-07T05:04:06;4.74;87.33
68578;SHT31;61668;45.388;11.784;2022-12-07T05:06:31;4.74;87.37
68578;SHT31;61668;45.388;11.784;2022-12-07T05:08:57;4.74;87.33
68578;SHT31;61668;45.388;11.784;2022-12-07T05:11:23;4.71;87.30
68578;SHT31;61668;45.388;11.784;2022-12-07T05:14:09;4.71;87.30
68578;SHT31;61668;45.388;11.784;2022-12-07T05:16:40;4.69;87.27
68578;SHT31;61668;45.388;11.784;2022-12-07T05:19:09;4.67;87.19
68578;SHT31;61668;45.388;11.784;2022-12-07T05:21:35;4.64;87.20
68578;SHT31;61668;45.388;11.784;2022-12-07T05:24:01;4.61;87.19
68578;SHT31;61668;45.388;11.784;2022-12-07T05:26:28;4.58;87.20
68578;SHT31;61668;45.388;11.784;2022-12-07T05:28:54;4.55;87.18
68578;SHT31;61668;45.388;11.784;2022-12-07T05:31:25;4.52;87.20
68578;SHT31;61668;45.388;11.784;2022-12-07T05:33:52;4.49;87.19
68578;SHT31;61668;45.388;11.784;2022-12-07T05:36:18;4.45;87.20
68578;SHT31;61668;45.388;11.784;2022-12-07T05:38:47;4.43;87.20
68578;SHT31;61668;45.388;11.784;2022-12-07T05:41:14;4.39;87.20
68578;SHT31;61668;45.388;11.784;2022-12-07T05:44:00;4.36;87.22
68578;SHT31;61668;45.388;11.784;2022-12-07T05:46:26;4.33;87.23
68578;SHT31;61668;45.388;11.784;2022-12-07T05:48:51;4.29;87.20
68578;SHT31;61668;45.388;11.784;2022-12-07T05:51:17;4.27;87.21
68578;SHT31;61668;45.388;11.784;2022-12-07T05:53:43;4.24;87.22
68578;SHT31;61668;45.388;11.784;2022-12-07T05:56:12;4.20;87.20
68578;SHT31;61668;45.388;11.784;2022-12-07T05:58:38;4.15;87.20
68578;SHT31;61668;45.388;11.784;2022-12-07T06:01:22;4.12;87.21
68578;SHT31;61668;45.388;11.784;2022-12-07T06:03:48;4.09;87.18
68578;SHT31;61668;45.388;11.784;2022-12-07T06:06:14;4.05;87.05
68578;SHT31;61668;45.388;11.784;2022-12-07T06:08:40;4.02;86.91
68578;SHT31;61668;45.388;11.784;2022-12-07T06:11:05;4.02;86.85
68578;SHT31;61668;45.388;11.784;2022-12-07T06:13:50;4.01;86.80
68578;SHT31;61668;45.388;11.784;2022-12-07T06:16:15;3.99;86.80
68578;SHT31;61668;45.388;11.784;2022-12-07T06:18:41;3.99;86.85
68578;SHT31;61668;45.388;11.784;2022-12-07T06:21:06;3.98;86.80
68578;SHT31;61668;45.388;11.784;2022-12-07T06:23:31;3.96;86.80
68578;SHT31;61668;45.388;11.784;2022-12-07T06:25:57;3.92;86.78
68578;SHT31;61668;45.388;11.784;2022-12-07T06:28:22;3.90;86.70
68578;SHT31;61668;45.388;11.784;2022-12-07T06:30:56;3.85;86.59
68578;SHT31;61668;45.388;11.784;2022-12-07T06:33:24;3.80;86.54
68578;SHT31;61668;45.388;11.784;2022-12-07T06:35:49;3.74;86.58
68578;SHT31;61668;45.388;11.784;2022-12-07T06:38:15;3.72;86.64
68578;SHT31;61668;45.388;11.784;2022-12-07T06:40:40;3.68;86.57
68578;SHT31;61668;45.388;11.784;2022-12-07T06:43:06;3.64;86.51
68578;SHT31;61668;45.388;11.784;2022-12-07T06:45:31;3.60;86.51
68578;SHT31;61668;45.388;11.784;2022-12-07T06:47:57;3.56;86.60
68578;SHT31;61668;45.388;11.784;2022-12-07T06:50:22;3.55;86.60
68578;SHT31;61668;45.388;11.784;2022-12-07T06:52:47;3.56;86.60
68578;SHT31;61668;45.388;11.784;2022-12-07T06:55:13;3.58;86.62
68578;SHT31;61668;45.388;11.784;2022-12-07T06:57:38;3.62;86.59
68578;SHT31;61668;45.388;11.784;2022-12-07T07:00:04;3.64;86.46
68578;SHT31;61668;45.388;11.784;2022-12-07T07:02:31;3.68;86.49
68578;SHT31;61668;45.388;11.784;2022-12-07T07:04:56;3.68;86.43
68578;SHT31;61668;45.388;11.784;2022-12-07T07:07:22;3.67;86.28
68578;SHT31;61668;45.388;11.784;2022-12-07T07:09:47;3.63;86.17
68578;SHT31;61668;45.388;11.784;2022-12-07T07:12:13;3.58;86.19
68578;SHT31;61668;45.388;11.784;2022-12-07T07:14:38;3.56;86.29
68578;SHT31;61668;45.388;11.784;2022-12-07T07:17:04;3.57;86.30
68578;SHT31;61668;45.388;11.784;2022-12-07T07:19:29;3.56;86.40
68578;SHT31;61668;45.388;11.784;2022-12-07T07:21:55;3.56;86.48
68578;SHT31;61668;45.388;11.784;2022-12-07T07:24:20;3.55;86.58
68578;SHT31;61668;45.388;11.784;2022-12-07T07:26:46;3.57;86.72
68578;SHT31;61668;45.388;11.784;2022-12-07T07:29:11;3.58;86.88
68578;SHT31;61668;45.388;11.784;2022-12-07T07:31:37;3.60;86.99
68578;SHT31;61668;45.388;11.784;2022-12-07T07:34:02;3.63;87.14
68578;SHT31;61668;45.388;11.784;2022-12-07T07:36:28;3.66;87.26
68578;SHT31;61668;45.388;11.784;2022-12-07T07:38:53;3.73;87.38
68578;SHT31;61668;45.388;11.784;2022-12-07T07:41:19;3.80;87.43
68578;SHT31;61668;45.388;11.784;2022-12-07T07:43:45;3.84;87.40
68578;SHT31;61668;45.388;11.784;2022-12-07T07:46:10;3.86;87.41
68578;SHT31;61668;45.388;11.784;2022-12-07T07:48:36;3.89;87.47
68578;SHT31;61668;45.388;11.784;2022-12-07T07:51:04;3.92;87.49
68578;SHT31;61668;45.388;11.784;2022-12-07T07:53:32;3.96;87.48
68578;SHT31;61668;45.388;11.784;2022-12-07T07:55:57;4.00;87.47
68578;SHT31;61668;45.388;11.784;2022-12-07T07:58:23;4.04;87.42
68578;SHT31;61668;45.388;11.784;2022-12-07T08:00:49;4.06;87.35
68578;SHT31;61668;45.388;11.784;2022-12-07T08:03:14;4.11;87.36
68578;SHT31;61668;45.388;11.784;2022-12-07T08:05:40;4.17;87.36
68578;SHT31;61668;45.388;11.784;2022-12-07T08:08:05;4.23;87.28
68578;SHT31;61668;45.388;11.784;2022-12-07T08:10:31;4.27;87.14
68578;SHT31;61668;45.388;11.784;2022-12-07T08:12:57;4.31;87.08
68578;SHT31;61668;45.388;11.784;2022-12-07T08:15:36;4.40;87.00
68578;SHT31;61668;45.388;11.784;2022-12-07T08:18:03;4.49;87.00
68578;SHT31;61668;45.388;11.784;2022-12-07T08:20:30;4.61;86.96
68578;SHT31;61668;45.388;11.784;2022-12-07T08:22:57;4.71;86.90
68578;SHT31;61668;45.388;11.784;2022-12-07T08:25:23;4.87;86.87
68578;SHT31;61668;45.388;11.784;2022-12-07T08:27:49;5.05;86.67
68578;SHT31;61668;45.388;11.784;2022-12-07T08:30:16;5.23;86.49
68578;SHT31;61668;45.388;11.784;2022-12-07T08:32:43;5.39;86.21
68578;SHT31;61668;45.388;11.784;2022-12-07T08:35:10;5.49;86.03
68578;SHT31;61668;45.388;11.784;2022-12-07T08:37:36;5.53;86.02
68578;SHT31;61668;45.388;11.784;2022-12-07T08:40:03;5.63;86.07
68578;SHT31;61668;45.388;11.784;2022-12-07T08:42:31;5.84;86.11
68578;SHT31;61668;45.388;11.784;2022-12-07T08:47:40;6.36;85.43
68578;SHT31;61668;45.388;11.784;2022-12-07T08:50:10;6.62;85.09
68578;SHT31;61668;45.388;11.784;2022-12-07T08:52:37;6.75;84.61
68578;SHT31;61668;45.388;11.784;2022-12-07T08:55:04;6.87;84.22
68578;SHT31;61668;45.388;11.784;2022-12-07T08:57:31;7.00;84.02
68578;SHT31;61668;45.388;11.784;2022-12-07T08:59:59;7.09;84.03
68578;SHT31;61668;45.388;11.784;2022-12-07T09:02:24;7.15;84.09
68578;SHT31;61668;45.388;11.784;2022-12-07T09:04:50;7.24;84.05
68578;SHT31;61668;45.388;11.784;2022-12-07T09:07:16;7.29;83.61
68578;SHT31;61668;45.388;11.784;2022-12-07T09:09:42;7.40;83.47
68578;SHT31;61668;45.388;11.784;2022-12-07T09:12:07;7.50;83.21
68578;SHT31;61668;45.388;11.784;2022-12-07T09:14:33;7.68;83.12
68578;SHT31;61668;45.388;11.784;2022-12-07T09:17:09;7.96;83.07
68578;SHT31;61668;45.388;11.784;2022-12-07T09:19:37;8.26;82.58
68578;SHT31;61668;45.388;11.784;2022-12-07T09:22:03;8.54;81.85
68578;SHT31;61668;45.388;11.784;2022-12-07T09:24:30;8.83;81.55
68578;SHT31;61668;45.388;11.784;2022-12-07T09:26:57;9.15;81.09
68578;SHT31;61668;45.388;11.784;2022-12-07T09:29:23;9.42;80.41
68578;SHT31;61668;45.388;11.784;2022-12-07T09:31:49;9.68;79.83
68578;SHT31;61668;45.388;11.784;2022-12-07T09:34:16;9.94;79.42
68578;SHT31;61668;45.388;11.784;2022-12-07T09:36:41;10.17;78.80
68578;SHT31;61668;45.388;11.784;2022-12-07T09:39:07;10.29;77.92
68578;SHT31;61668;45.388;11.784;2022-12-07T09:41:33;10.31;77.59
68578;SHT31;61668;45.388;11.784;2022-12-07T09:44:06;10.30;77.36
68578;SHT31;61668;45.388;11.784;2022-12-07T09:46:38;10.24;77.36
68578;SHT31;61668;45.388;11.784;2022-12-07T09:49:11;10.11;76.44
68578;SHT31;61668;45.388;11.784;2022-12-07T09:51:41;9.90;76.15
68578;SHT31;61668;45.388;11.784;2022-12-07T09:54:07;9.72;76.13
68578;SHT31;61668;45.388;11.784;2022-12-07T09:56:35;9.55;75.90
68578;SHT31;61668;45.388;11.784;2022-12-07T09:59:01;9.38;75.89
68578;SHT31;61668;45.388;11.784;2022-12-07T10:01:29;9.22;76.06
68578;SHT31;61668;45.388;11.784;2022-12-07T10:04:12;9.08;76.57
68578;SHT31;61668;45.388;11.784;2022-12-07T10:06:42;8.99;77.03
68578;SHT31;61668;45.388;11.784;2022-12-07T10:09:08;8.89;77.23
68578;SHT31;61668;45.388;11.784;2022-12-07T10:14:33;8.69;77.35
68578;SHT31;61668;45.388;11.784;2022-12-07T10:17:02;8.60;77.57
68578;SHT31;61668;45.388;11.784;2022-12-07T10:22:55;8.47;78.20
68578;SHT31;61668;45.388;11.784;2022-12-07T10:25:27;8.40;78.41
68578;SHT31;61668;45.388;11.784;2022-12-07T10:30:27;8.32;78.72
68578;SHT31;61668;45.388;11.784;2022-12-07T10:32:52;8.30;78.81
68578;SHT31;61668;45.388;11.784;2022-12-07T10:37:47;8.23;78.85
68578;SHT31;61668;45.388;11.784;2022-12-07T10:40:33;8.19;78.98
68578;SHT31;61668;45.388;11.784;2022-12-07T10:45:53;8.22;79.52
68578;SHT31;61668;45.388;11.784;2022-12-07T10:51:47;8.29;79.45
68578;SHT31;61668;45.388;11.784;2022-12-07T10:54:48;8.33;79.41
68578;SHT31;61668;45.388;11.784;2022-12-07T10:57:32;8.36;78.91
68578;SHT31;61668;45.388;11.784;2022-12-07T11:03:08;8.41;79.26
68578;SHT31;61668;45.388;11.784;2022-12-07T11:06:13;8.44;78.98
68578;SHT31;61668;45.388;11.784;2022-12-07T11:11:43;8.45;79.50
68578;SHT31;61668;45.388;11.784;2022-12-07T11:15:01;8.47;79.41
68578;SHT31;61668;45.388;11.784;2022-12-07T11:17:56;8.48;79.30
68578;SHT31;61668;45.388;11.784;2022-12-07T11:20:35;8.51;79.18
68578;SHT31;61668;45.388;11.784;2022-12-07T11:29:25;8.62;78.93
68578;SHT31;61668;45.388;11.784;2022-12-07T11:38:19;8.79;78.87
68578;SHT31;61668;45.388;11.784;2022-12-07T11:40:53;8.85;78.64
68578;SHT31;61668;45.388;11.784;2022-12-07T11:43:37;8.91;78.53
68578;SHT31;61668;45.388;11.784;2022-12-07T11:46:47;8.97;78.66
68578;SHT31;61668;45.388;11.784;2022-12-07T11:49:36;9.01;79.02
68578;SHT31;61668;45.388;11.784;2022-12-07T11:52:25;9.04;79.12
68578;SHT31;61668;45.388;11.784;2022-12-07T11:54:58;9.08;78.96
68578;SHT31;61668;45.388;11.784;2022-12-07T11:57:39;9.09;78.60
68578;SHT31;61668;45.388;11.784;2022-12-07T12:00:14;9.11;78.73
68578;SHT31;61668;45.388;11.784;2022-12-07T12:05:21;9.15;78.59
68578;SHT31;61668;45.388;11.784;2022-12-07T12:08:32;9.19;78.76
68578;SHT31;61668;45.388;11.784;2022-12-07T12:10:55;9.24;78.73
68578;SHT31;61668;45.388;11.784;2022-12-07T12:23:16;9.41;78.27
68578;SHT31;61668;45.388;11.784;2022-12-07T12:28:49;9.46;77.64
68578;SHT31;61668;45.388;11.784;2022-12-07T12:33:56;9.49;77.21
68578;SHT31;61668;45.388;11.784;2022-12-07T12:49:31;9.54;76.25
68578;SHT31;61668;45.388;11.784;2022-12-07T12:51:58;9.56;75.68
68578;SHT31;61668;45.388;11.784;2022-12-07T12:54:29;9.58;74.90
68578;SHT31;61668;45.388;11.784;2022-12-07T13:02:20;9.62;75.11
68578;SHT31;61668;45.388;11.784;2022-12-07T13:05:30;9.65;75.11
68578;SHT31;61668;45.388;11.784;2022-12-07T13:12:58;9.71;73.74
68578;SHT31;61668;45.388;11.784;2022-12-07T13:15:44;9.72;73.32
68578;SHT31;61668;45.388;11.784;2022-12-07T13:31:44;9.69;72.64
68578;SHT31;61668;45.388;11.784;2022-12-07T13:37:25;9.68;73.50
68578;SHT31;61668;45.388;11.784;2022-12-07T13:39:54;9.71;73.60
68578;SHT31;61668;45.388;11.784;2022-12-07T13:42:33;9.72;73.66
68578;SHT31;61668;45.388;11.784;2022-12-07T13:45:16;9.73;73.56
68578;SHT31;61668;45.388;11.784;2022-12-07T13:51:19;9.77;73.71
68578;SHT31;61668;45.388;11.784;2022-12-07T13:54:08;9.77;74.00
68578;SHT31;61668;45.388;11.784;2022-12-07T13:56:36;9.78;74.01
68578;SHT31;61668;45.388;11.784;2022-12-07T13:59:10;9.76;73.67
68578;SHT31;61668;45.388;11.784;2022-12-07T14:01:46;9.74;73.11
68578;SHT31;61668;45.388;11.784;2022-12-07T14:04:18;9.71;72.92
68578;SHT31;61668;45.388;11.784;2022-12-07T14:06:56;9.68;73.16
68578;SHT31;61668;45.388;11.784;2022-12-07T14:09:22;9.64;73.28
68578;SHT31;61668;45.388;11.784;2022-12-07T14:11:52;9.61;73.26
68578;SHT31;61668;45.388;11.784;2022-12-07T14:14:21;9.58;73.11
68578;SHT31;61668;45.388;11.784;2022-12-07T14:24:59;9.54;73.32
68578;SHT31;61668;45.388;11.784;2022-12-07T14:27:50;9.54;73.40
68578;SHT31;61668;45.388;11.784;2022-12-07T14:30:25;9.53;73.35
68578;SHT31;61668;45.388;11.784;2022-12-07T14:32:57;9.52;73.49
68578;SHT31;61668;45.388;11.784;2022-12-07T14:35:26;9.51;73.57
68578;SHT31;61668;45.388;11.784;2022-12-07T14:37:53;9.48;73.65
68578;SHT31;61668;45.388;11.784;2022-12-07T14:40:26;9.44;73.50
68578;SHT31;61668;45.388;11.784;2022-12-07T14:42:58;9.39;73.32
68578;SHT31;61668;45.388;11.784;2022-12-07T14:45:28;9.36;73.23
68578;SHT31;61668;45.388;11.784;2022-12-07T14:47:54;9.31;73.31
68578;SHT31;61668;45.388;11.784;2022-12-07T14:50:20;9.27;73.45
68578;SHT31;61668;45.388;11.784;2022-12-07T14:52:58;9.23;73.70
68578;SHT31;61668;45.388;11.784;2022-12-07T14:55:31;9.19;73.86
68578;SHT31;61668;45.388;11.784;2022-12-07T14:57:57;9.15;74.09
68578;SHT31;61668;45.388;11.784;2022-12-07T15:00:24;9.12;74.34
68578;SHT31;61668;45.388;11.784;2022-12-07T15:02:51;9.08;74.65
68578;SHT31;61668;45.388;11.784;2022-12-07T15:05:17;9.05;74.96
68578;SHT31;61668;45.388;11.784;2022-12-07T15:07:44;9.02;75.21
68578;SHT31;61668;45.388;11.784;2022-12-07T15:10:18;8.98;75.35
68578;SHT31;61668;45.388;11.784;2022-12-07T15:12:47;8.94;75.51
68578;SHT31;61668;45.388;11.784;2022-12-07T15:15:12;8.90;75.61
68578;SHT31;61668;45.388;11.784;2022-12-07T15:17:38;8.85;75.70
68578;SHT31;61668;45.388;11.784;2022-12-07T15:20:05;8.81;75.78
68578;SHT31;61668;45.388;11.784;2022-12-07T15:22:41;8.76;75.80
68578;SHT31;61668;45.388;11.784;2022-12-07T15:25:08;8.71;75.90
68578;SHT31;61668;45.388;11.784;2022-12-07T15:27:38;8.66;76.01
68578;SHT31;61668;45.388;11.784;2022-12-07T15:30:03;8.61;76.08
68578;SHT31;61668;45.388;11.784;2022-12-07T15:32:30;8.56;76.23
68578;SHT31;61668;45.388;11.784;2022-12-07T15:34:55;8.52;76.39
68578;SHT31;61668;45.388;11.784;2022-12-07T15:37:21;8.45;76.55
68578;SHT31;61668;45.388;11.784;2022-12-07T15:39:46;8.37;76.70
68578;SHT31;61668;45.388;11.784;2022-12-07T15:42:12;8.31;76.86
68578;SHT31;61668;45.388;11.784;2022-12-07T15:44:37;8.24;77.03
68578;SHT31;61668;45.388;11.784;2022-12-07T15:47:21;8.18;77.17
68578;SHT31;61668;45.388;11.784;2022-12-07T15:49:47;8.11;77.35
68578;SHT31;61668;45.388;11.784;2022-12-07T15:52:12;8.03;77.53
68578;SHT31;61668;45.388;11.784;2022-12-07T15:54:38;7.98;77.70
68578;SHT31;61668;45.388;11.784;2022-12-07T15:57:03;7.93;77.84
68578;SHT31;61668;45.388;11.784;2022-12-07T15:59:29;7.88;77.97
68578;SHT31;61668;45.388;11.784;2022-12-07T16:01:54;7.85;78.13
68578;SHT31;61668;45.388;11.784;2022-12-07T16:04:22;7.82;78.30
68578;SHT31;61668;45.388;11.784;2022-12-07T16:06:51;7.79;78.45
68578;SHT31;61668;45.388;11.784;2022-12-07T16:09:16;7.74;78.64
68578;SHT31;61668;45.388;11.784;2022-12-07T16:11:43;7.70;78.79
68578;SHT31;61668;45.388;11.784;2022-12-07T16:14:08;7.67;78.93
68578;SHT31;61668;45.388;11.784;2022-12-07T16:16:34;7.64;79.05
68578;SHT31;61668;45.388;11.784;2022-12-07T16:18:59;7.61;79.13
68578;SHT31;61668;45.388;11.784;2022-12-07T16:21:24;7.56;79.22
68578;SHT31;61668;45.388;11.784;2022-12-07T16:23:50;7.50;79.37
68578;SHT31;61668;45.388;11.784;2022-12-07T16:26:16;7.41;79.50
68578;SHT31;61668;45.388;11.784;2022-12-07T16:28:44;7.33;79.65
68578;SHT31;61668;45.388;11.784;2022-12-07T16:31:13;7.26;79.77
68578;SHT31;61668;45.388;11.784;2022-12-07T16:33:42;7.21;79.87
68578;SHT31;61668;45.388;11.784;2022-12-07T16:36:10;7.16;79.96
68578;SHT31;61668;45.388;11.784;2022-12-07T16:38:38;7.12;80.06
68578;SHT31;61668;45.388;11.784;2022-12-07T16:41:07;7.09;80.16
68578;SHT31;61668;45.388;11.784;2022-12-07T16:43:33;7.06;80.20
68578;SHT31;61668;45.388;11.784;2022-12-07T16:45:59;7.02;80.30
68578;SHT31;61668;45.388;11.784;2022-12-07T16:48:25;6.98;80.36
68578;SHT31;61668;45.388;11.784;2022-12-07T16:50:50;6.96;80.45
68578;SHT31;61668;45.388;11.784;2022-12-07T16:53:19;6.94;80.49
68578;SHT31;61668;45.388;11.784;2022-12-07T16:55:46;6.91;80.49
68578;SHT31;61668;45.388;11.784;2022-12-07T16:58:13;6.89;80.56
68578;SHT31;61668;45.388;11.784;2022-12-07T17:00:41;6.88;80.51
68578;SHT31;61668;45.388;11.784;2022-12-07T17:03:08;6.84;80.51
68578;SHT31;61668;45.388;11.784;2022-12-07T17:05:37;6.79;80.61
68578;SHT31;61668;45.388;11.784;2022-12-07T17:08:04;6.74;80.67
68578;SHT31;61668;45.388;11.784;2022-12-07T17:10:30;6.67;80.70
68578;SHT31;61668;45.388;11.784;2022-12-07T17:13:00;6.62;80.79
68578;SHT31;61668;45.388;11.784;2022-12-07T17:15:54;6.54;80.82
68578;SHT31;61668;45.388;11.784;2022-12-07T17:18:26;6.45;80.92
68578;SHT31;61668;45.388;11.784;2022-12-07T17:20:54;6.36;81.02
68578;SHT31;61668;45.388;11.784;2022-12-07T17:23:20;6.29;81.14
68578;SHT31;61668;45.388;11.784;2022-12-07T17:25:46;6.22;81.23
68578;SHT31;61668;45.388;11.784;2022-12-07T17:28:12;6.16;81.30
68578;SHT31;61668;45.388;11.784;2022-12-07T17:30:38;6.07;81.28
68578;SHT31;61668;45.388;11.784;2022-12-07T17:33:04;5.99;81.34
68578;SHT31;61668;45.388;11.784;2022-12-07T17:35:29;5.90;81.46
68578;SHT31;61668;45.388;11.784;2022-12-07T17:37:55;5.84;81.61
68578;SHT31;61668;45.388;11.784;2022-12-07T17:40:21;5.76;81.60
68578;SHT31;61668;45.388;11.784;2022-12-07T17:42:46;5.70;81.63
68578;SHT31;61668;45.388;11.784;2022-12-07T17:45:15;5.66;81.61
68578;SHT31;61668;45.388;11.784;2022-12-07T17:47:42;5.60;81.70
68578;SHT31;61668;45.388;11.784;2022-12-07T17:50:08;5.54;81.72
68578;SHT31;61668;45.388;11.784;2022-12-07T17:52:38;5.48;81.77
68578;SHT31;61668;45.388;11.784;2022-12-07T17:55:24;5.39;81.87
68578;SHT31;61668;45.388;11.784;2022-12-07T17:57:49;5.33;81.97
68578;SHT31;61668;45.388;11.784;2022-12-07T18:00:16;5.29;82.04
68578;SHT31;61668;45.388;11.784;2022-12-07T18:02:43;5.25;82.18
68578;SHT31;61668;45.388;11.784;2022-12-07T18:05:09;5.23;82.28
68578;SHT31;61668;45.388;11.784;2022-12-07T18:07:37;5.22;82.37
68578;SHT31;61668;45.388;11.784;2022-12-07T18:10:03;5.21;82.46
68578;SHT31;61668;45.388;11.784;2022-12-07T18:12:31;5.18;82.53
68578;SHT31;61668;45.388;11.784;2022-12-07T18:14:57;5.15;82.63
68578;SHT31;61668;45.388;11.784;2022-12-07T18:17:22;5.10;82.74